sensor_id;sensor_type;location;lat;lon;timestamp;P1;durP1;ratioP1;P2;durP2;ratioP2
42724;SDS011;28369;44.046;23.014;2024-01-16T08:22:09;8.38;;;5.43;;
42724;SDS011;28369;44.046;23.014;2024-01-16T08:24:35;4.38;;;2.92;;
42724;SDS011;28369;44.046;23.014;2024-01-16T08:27:02;6.25;;;3.13;;
42724;SDS011;28369;44.046;23.014;2024-01-16T08:29:29;5.43;;;3.20;;
42724;SDS011;28369;44.046;23.014;2024-01-16T08:31:56;4.68;;;3.22;;
42724;SDS011;28369;44.046;23.014;2024-01-16T08:34:22;2.90;;;2.17;;
42724;SDS011;28369;44.046;23.014;2024-01-16T08:36:47;3.83;;;2.10;;
42724;SDS011;28369;44.046;23.014;2024-01-16T08:39:13;3.72;;;2.45;;
42724;SDS011;28369;44.046;23.014;2024-01-16T08:41:42;3.33;;;2.50;;
42724;SDS011;28369;44.046;23.014;2024-01-16T08:44:11;4.20;;;3.15;;
42724;SDS011;28369;44.046;23.014;2024-01-16T08:46:38;3.65;;;3.03;;
42724;SDS011;28369;44.046;23.014;2024-01-16T08:49:04;5.07;;;3.10;;
42724;SDS011;28369;44.046;23.014;2024-01-16T08:51:34;4.05;;;2.85;;
42724;SDS011;28369;44.046;23.014;2024-01-16T08:54:00;5.95;;;3.10;;
42724;SDS011;28369;44.046;23.014;2024-01-16T08:56:25;5.35;;;3.10;;
42724;SDS011;28369;44.046;23.014;2024-01-16T08:58:51;4.57;;;2.92;;
42724;SDS011;28369;44.046;23.014;2024-01-16T09:01:17;8.05;;;3.40;;
42724;SDS011;28369;44.046;23.014;2024-01-16T09:03:43;3.70;;;2.67;;
42724;SDS011;28369;44.046;23.014;2024-01-16T09:06:09;4.07;;;2.38;;
42724;SDS011;28369;44.046;23.014;2024-01-16T09:11:06;7.25;;;3.42;;
42724;SDS011;28369;44.046;23.014;2024-01-16T09:13:34;5.25;;;2.95;;
42724;SDS011;28369;44.046;23.014;2024-01-16T09:16:00;3.78;;;2.50;;
42724;SDS011;28369;44.046;23.014;2024-01-16T09:18:26;6.45;;;2.70;;
42724;SDS011;28369;44.046;23.014;2024-01-16T09:20:52;3.00;;;2.50;;
42724;SDS011;28369;44.046;23.014;2024-01-16T09:23:18;3.22;;;2.42;;
42724;SDS011;28369;44.046;23.014;2024-01-16T09:28:16;2.90;;;2.20;;
42724;SDS011;28369;44.046;23.014;2024-01-16T09:30:41;7.10;;;4.30;;
42724;SDS011;28369;44.046;23.014;2024-01-16T09:33:07;7.50;;;5.40;;
42724;SDS011;28369;44.046;23.014;2024-01-16T09:35:35;5.07;;;2.80;;
42724;SDS011;28369;44.046;23.014;2024-01-16T09:38:01;3.13;;;2.40;;
42724;SDS011;28369;44.046;23.014;2024-01-16T09:40:27;2.90;;;2.50;;
42724;SDS011;28369;44.046;23.014;2024-01-16T09:42:54;3.55;;;1.98;;
42724;SDS011;28369;44.046;23.014;2024-01-16T09:45:22;2.63;;;2.42;;
42724;SDS011;28369;44.046;23.014;2024-01-16T09:47:50;2.83;;;2.20;;
42724;SDS011;28369;44.046;23.014;2024-01-16T09:50:18;4.25;;;2.08;;
42724;SDS011;28369;44.046;23.014;2024-01-16T09:52:53;3.00;;;2.50;;
42724;SDS011;28369;44.046;23.014;2024-01-16T09:55:20;2.90;;;2.13;;
42724;SDS011;28369;44.046;23.014;2024-01-16T09:57:46;4.20;;;1.98;;
42724;SDS011;28369;44.046;23.014;2024-01-16T10:00:20;1.88;;;1.73;;
42724;SDS011;28369;44.046;23.014;2024-01-16T10:02:47;3.97;;;2.83;;
42724;SDS011;28369;44.046;23.014;2024-01-16T10:05:15;6.18;;;3.45;;
42724;SDS011;28369;44.046;23.014;2024-01-16T10:07:42;6.43;;;2.97;;
42724;SDS011;28369;44.046;23.014;2024-01-16T10:10:11;2.80;;;2.25;;
42724;SDS011;28369;44.046;23.014;2024-01-16T10:12:37;5.65;;;3.65;;
42724;SDS011;28369;44.046;23.014;2024-01-16T10:15:06;3.58;;;1.65;;
42724;SDS011;28369;44.046;23.014;2024-01-16T10:17:37;3.25;;;2.05;;
42724;SDS011;28369;44.046;23.014;2024-01-16T10:20:04;2.65;;;1.90;;
42724;SDS011;28369;44.046;23.014;2024-01-16T10:22:30;4.40;;;2.30;;
42724;SDS011;28369;44.046;23.014;2024-01-16T10:25:11;3.75;;;2.13;;
42724;SDS011;28369;44.046;23.014;2024-01-16T10:27:42;3.17;;;2.20;;
42724;SDS011;28369;44.046;23.014;2024-01-16T10:30:08;2.55;;;2.35;;
42724;SDS011;28369;44.046;23.014;2024-01-16T10:32:38;3.20;;;2.22;;
42724;SDS011;28369;44.046;23.014;2024-01-16T10:37:43;2.90;;;2.15;;
42724;SDS011;28369;44.046;23.014;2024-01-16T10:40:15;2.60;;;2.15;;
42724;SDS011;28369;44.046;23.014;2024-01-16T10:43:01;1.45;;;1.35;;
42724;SDS011;28369;44.046;23.014;2024-01-16T10:45:28;3.85;;;1.45;;
42724;SDS011;28369;44.046;23.014;2024-01-16T10:48:04;3.40;;;2.10;;
42724;SDS011;28369;44.046;23.014;2024-01-16T10:50:37;2.47;;;1.55;;
42724;SDS011;28369;44.046;23.014;2024-01-16T10:53:07;2.15;;;1.95;;
42724;SDS011;28369;44.046;23.014;2024-01-16T10:55:43;2.22;;;1.73;;
42724;SDS011;28369;44.046;23.014;2024-01-16T11:00:45;13.27;;;8.32;;
42724;SDS011;28369;44.046;23.014;2024-01-16T11:03:18;14.43;;;8.80;;
42724;SDS011;28369;44.046;23.014;2024-01-16T11:05:51;3.08;;;2.67;;
42724;SDS011;28369;44.046;23.014;2024-01-16T11:08:21;2.30;;;2.10;;
42724;SDS011;28369;44.046;23.014;2024-01-16T11:10:52;2.83;;;2.00;;
42724;SDS011;28369;44.046;23.014;2024-01-16T11:13:20;3.03;;;2.08;;
42724;SDS011;28369;44.046;23.014;2024-01-16T11:15:47;2.20;;;1.80;;
42724;SDS011;28369;44.046;23.014;2024-01-16T11:18:21;2.08;;;1.88;;
42724;SDS011;28369;44.046;23.014;2024-01-16T11:20:47;2.55;;;2.08;;
42724;SDS011;28369;44.046;23.014;2024-01-16T11:23:13;2.72;;;2.22;;
42724;SDS011;28369;44.046;23.014;2024-01-16T11:25:39;2.30;;;2.10;;
42724;SDS011;28369;44.046;23.014;2024-01-16T11:28:11;2.38;;;2.13;;
42724;SDS011;28369;44.046;23.014;2024-01-16T11:30:38;3.22;;;2.25;;
42724;SDS011;28369;44.046;23.014;2024-01-16T11:36:01;2.40;;;2.10;;
42724;SDS011;28369;44.046;23.014;2024-01-16T11:38:33;2.17;;;1.90;;
42724;SDS011;28369;44.046;23.014;2024-01-16T11:47:28;2.17;;;1.70;;
42724;SDS011;28369;44.046;23.014;2024-01-16T11:50:27;2.20;;;1.95;;
42724;SDS011;28369;44.046;23.014;2024-01-16T11:52:57;2.40;;;2.20;;
42724;SDS011;28369;44.046;23.014;2024-01-16T11:55:33;4.70;;;3.80;;
42724;SDS011;28369;44.046;23.014;2024-01-16T12:01:14;4.10;;;2.45;;
42724;SDS011;28369;44.046;23.014;2024-01-16T12:03:43;2.47;;;1.88;;
42724;SDS011;28369;44.046;23.014;2024-01-16T12:06:09;2.85;;;1.77;;
42724;SDS011;28369;44.046;23.014;2024-01-16T12:11:57;20.90;;;14.00;;
42724;SDS011;28369;44.046;23.014;2024-01-16T12:14:26;4.00;;;2.17;;
42724;SDS011;28369;44.046;23.014;2024-01-16T12:17:34;3.33;;;2.10;;
42724;SDS011;28369;44.046;23.014;2024-01-16T12:19:43;2.28;;;2.03;;
42724;SDS011;28369;44.046;23.014;2024-01-16T12:22:09;3.38;;;1.90;;
42724;SDS011;28369;44.046;23.014;2024-01-16T12:24:38;2.63;;;1.67;;
42724;SDS011;28369;44.046;23.014;2024-01-16T12:27:04;3.50;;;1.52;;
42724;SDS011;28369;44.046;23.014;2024-01-16T12:29:30;1.85;;;1.60;;
42724;SDS011;28369;44.046;23.014;2024-01-16T12:32:07;2.65;;;1.85;;
42724;SDS011;28369;44.046;23.014;2024-01-16T12:34:34;1.95;;;1.48;;
42724;SDS011;28369;44.046;23.014;2024-01-16T12:37:09;2.75;;;1.70;;
42724;SDS011;28369;44.046;23.014;2024-01-16T12:39:35;3.45;;;2.10;;
42724;SDS011;28369;44.046;23.014;2024-01-16T12:42:01;2.55;;;1.90;;
42724;SDS011;28369;44.046;23.014;2024-01-16T12:44:27;2.25;;;1.75;;
42724;SDS011;28369;44.046;23.014;2024-01-16T12:46:54;1.95;;;1.60;;
42724;SDS011;28369;44.046;23.014;2024-01-16T12:49:22;1.88;;;1.60;;
42724;SDS011;28369;44.046;23.014;2024-01-16T12:51:50;2.38;;;1.80;;
42724;SDS011;28369;44.046;23.014;2024-01-16T12:54:23;1.73;;;1.58;;
42724;SDS011;28369;44.046;23.014;2024-01-16T12:56:57;3.55;;;2.08;;
42724;SDS011;28369;44.046;23.014;2024-01-16T12:59:26;4.45;;;2.88;;
42724;SDS011;28369;44.046;23.014;2024-01-16T13:01:56;2.47;;;1.77;;
42724;SDS011;28369;44.046;23.014;2024-01-16T13:04:22;2.20;;;1.75;;
42724;SDS011;28369;44.046;23.014;2024-01-16T13:06:48;2.50;;;1.98;;
42724;SDS011;28369;44.046;23.014;2024-01-16T13:09:14;1.98;;;1.55;;
42724;SDS011;28369;44.046;23.014;2024-01-16T13:11:55;3.00;;;1.92;;
42724;SDS011;28369;44.046;23.014;2024-01-16T13:14:21;4.68;;;2.33;;
42724;SDS011;28369;44.046;23.014;2024-01-16T13:16:51;2.05;;;1.85;;
42724;SDS011;28369;44.046;23.014;2024-01-16T13:19:19;4.88;;;2.17;;
42724;SDS011;28369;44.046;23.014;2024-01-16T13:21:45;3.08;;;2.05;;
42724;SDS011;28369;44.046;23.014;2024-01-16T13:24:15;3.10;;;2.08;;
42724;SDS011;28369;44.046;23.014;2024-01-16T13:26:47;9.30;;;3.78;;
42724;SDS011;28369;44.046;23.014;2024-01-16T13:29:13;20.27;;;10.63;;
42724;SDS011;28369;44.046;23.014;2024-01-16T13:31:40;6.53;;;4.32;;
42724;SDS011;28369;44.046;23.014;2024-01-16T13:34:10;5.97;;;3.53;;
42724;SDS011;28369;44.046;23.014;2024-01-16T13:36:39;4.78;;;2.88;;
42724;SDS011;28369;44.046;23.014;2024-01-16T13:39:09;5.63;;;2.88;;
42724;SDS011;28369;44.046;23.014;2024-01-16T13:41:42;5.15;;;2.85;;
42724;SDS011;28369;44.046;23.014;2024-01-16T13:44:09;3.63;;;2.60;;
42724;SDS011;28369;44.046;23.014;2024-01-16T13:49:23;5.07;;;2.38;;
42724;SDS011;28369;44.046;23.014;2024-01-16T13:51:52;4.15;;;2.50;;
42724;SDS011;28369;44.046;23.014;2024-01-16T13:54:18;5.13;;;2.20;;
42724;SDS011;28369;44.046;23.014;2024-01-16T13:56:44;3.33;;;1.80;;
42724;SDS011;28369;44.046;23.014;2024-01-16T13:59:21;3.25;;;2.33;;
42724;SDS011;28369;44.046;23.014;2024-01-16T14:01:47;2.30;;;2.10;;
42724;SDS011;28369;44.046;23.014;2024-01-16T14:04:13;2.75;;;2.33;;
42724;SDS011;28369;44.046;23.014;2024-01-16T14:06:39;2.55;;;2.05;;
42724;SDS011;28369;44.046;23.014;2024-01-16T14:09:04;2.88;;;2.20;;
42724;SDS011;28369;44.046;23.014;2024-01-16T14:11:33;2.40;;;1.98;;
42724;SDS011;28369;44.046;23.014;2024-01-16T14:13:58;2.17;;;1.98;;
42724;SDS011;28369;44.046;23.014;2024-01-16T14:16:27;2.45;;;2.08;;
42724;SDS011;28369;44.046;23.014;2024-01-16T14:18:59;2.50;;;1.83;;
42724;SDS011;28369;44.046;23.014;2024-01-16T14:21:25;4.13;;;2.35;;
42724;SDS011;28369;44.046;23.014;2024-01-16T14:23:53;3.28;;;2.33;;
42724;SDS011;28369;44.046;23.014;2024-01-16T14:26:19;2.80;;;1.80;;
42724;SDS011;28369;44.046;23.014;2024-01-16T14:28:45;1.63;;;1.52;;
42724;SDS011;28369;44.046;23.014;2024-01-16T14:31:11;4.22;;;1.98;;
42724;SDS011;28369;44.046;23.014;2024-01-16T14:33:42;4.78;;;2.20;;
42724;SDS011;28369;44.046;23.014;2024-01-16T14:36:10;2.33;;;1.80;;
42724;SDS011;28369;44.046;23.014;2024-01-16T14:38:37;2.17;;;1.88;;
42724;SDS011;28369;44.046;23.014;2024-01-16T14:41:03;2.90;;;2.00;;
42724;SDS011;28369;44.046;23.014;2024-01-16T14:43:29;3.08;;;1.92;;
42724;SDS011;28369;44.046;23.014;2024-01-16T14:46:01;4.47;;;2.60;;
42724;SDS011;28369;44.046;23.014;2024-01-16T14:48:30;2.30;;;2.10;;
42724;SDS011;28369;44.046;23.014;2024-01-16T14:50:56;8.35;;;3.03;;
42724;SDS011;28369;44.046;23.014;2024-01-16T14:53:24;5.50;;;3.30;;
42724;SDS011;28369;44.046;23.014;2024-01-16T14:55:53;3.88;;;2.38;;
42724;SDS011;28369;44.046;23.014;2024-01-16T14:58:18;3.58;;;2.60;;
42724;SDS011;28369;44.046;23.014;2024-01-16T15:00:48;3.42;;;2.42;;
42724;SDS011;28369;44.046;23.014;2024-01-16T15:03:17;3.13;;;2.40;;
42724;SDS011;28369;44.046;23.014;2024-01-16T15:05:45;3.75;;;2.58;;
42724;SDS011;28369;44.046;23.014;2024-01-16T15:08:16;3.00;;;2.38;;
42724;SDS011;28369;44.046;23.014;2024-01-16T15:10:44;5.43;;;2.70;;
42724;SDS011;28369;44.046;23.014;2024-01-16T15:13:11;11.32;;;4.95;;
42724;SDS011;28369;44.046;23.014;2024-01-16T15:15:42;6.00;;;3.55;;
42724;SDS011;28369;44.046;23.014;2024-01-16T15:18:08;8.27;;;4.93;;
42724;SDS011;28369;44.046;23.014;2024-01-16T15:20:35;8.20;;;4.80;;
42724;SDS011;28369;44.046;23.014;2024-01-16T15:23:01;7.75;;;4.35;;
42724;SDS011;28369;44.046;23.014;2024-01-16T15:25:28;8.75;;;3.95;;
42724;SDS011;28369;44.046;23.014;2024-01-16T15:27:54;5.35;;;2.80;;
42724;SDS011;28369;44.046;23.014;2024-01-16T15:30:22;3.78;;;2.40;;
42724;SDS011;28369;44.046;23.014;2024-01-16T15:32:56;3.63;;;2.80;;
42724;SDS011;28369;44.046;23.014;2024-01-16T15:35:22;4.47;;;2.80;;
42724;SDS011;28369;44.046;23.014;2024-01-16T15:37:48;4.47;;;3.17;;
42724;SDS011;28369;44.046;23.014;2024-01-16T15:40:15;6.70;;;5.45;;
42724;SDS011;28369;44.046;23.014;2024-01-16T15:42:41;5.43;;;3.88;;
42724;SDS011;28369;44.046;23.014;2024-01-16T15:45:07;4.93;;;3.40;;
42724;SDS011;28369;44.046;23.014;2024-01-16T15:47:36;5.22;;;3.63;;
42724;SDS011;28369;44.046;23.014;2024-01-16T15:50:03;4.00;;;3.28;;
42724;SDS011;28369;44.046;23.014;2024-01-16T15:52:31;6.18;;;3.90;;
42724;SDS011;28369;44.046;23.014;2024-01-16T15:54:57;4.25;;;3.20;;
42724;SDS011;28369;44.046;23.014;2024-01-16T15:57:23;6.78;;;5.03;;
42724;SDS011;28369;44.046;23.014;2024-01-16T15:59:49;10.48;;;7.30;;
42724;SDS011;28369;44.046;23.014;2024-01-16T16:02:15;42.22;;;30.85;;
42724;SDS011;28369;44.046;23.014;2024-01-16T16:04:42;14.20;;;10.43;;
42724;SDS011;28369;44.046;23.014;2024-01-16T16:07:08;32.50;;;22.45;;
42724;SDS011;28369;44.046;23.014;2024-01-16T16:09:37;7.10;;;4.95;;
42724;SDS011;28369;44.046;23.014;2024-01-16T16:12:05;12.93;;;9.00;;
42724;SDS011;28369;44.046;23.014;2024-01-16T16:14:33;10.95;;;7.53;;
42724;SDS011;28369;44.046;23.014;2024-01-16T16:17:06;10.90;;;7.10;;
42724;SDS011;28369;44.046;23.014;2024-01-16T16:19:37;18.08;;;10.77;;
42724;SDS011;28369;44.046;23.014;2024-01-16T16:22:06;16.65;;;10.93;;
42724;SDS011;28369;44.046;23.014;2024-01-16T16:24:32;27.10;;;15.67;;
42724;SDS011;28369;44.046;23.014;2024-01-16T16:26:59;43.28;;;26.85;;
42724;SDS011;28369;44.046;23.014;2024-01-16T16:29:28;44.03;;;29.30;;
42724;SDS011;28369;44.046;23.014;2024-01-16T16:31:54;60.23;;;43.27;;
42724;SDS011;28369;44.046;23.014;2024-01-16T16:34:22;51.47;;;25.27;;
42724;SDS011;28369;44.046;23.014;2024-01-16T16:40:05;29.33;;;16.03;;
42724;SDS011;28369;44.046;23.014;2024-01-16T16:42:32;26.90;;;19.70;;
42724;SDS011;28369;44.046;23.014;2024-01-16T16:44:58;30.87;;;17.03;;
42724;SDS011;28369;44.046;23.014;2024-01-16T16:47:25;66.77;;;36.33;;
42724;SDS011;28369;44.046;23.014;2024-01-16T16:49:51;50.78;;;27.75;;
42724;SDS011;28369;44.046;23.014;2024-01-16T16:52:18;30.80;;;17.13;;
42724;SDS011;28369;44.046;23.014;2024-01-16T16:54:47;30.57;;;14.20;;
42724;SDS011;28369;44.046;23.014;2024-01-16T16:57:13;27.00;;;14.67;;
42724;SDS011;28369;44.046;23.014;2024-01-16T16:59:40;25.50;;;12.83;;
42724;SDS011;28369;44.046;23.014;2024-01-16T17:02:07;18.73;;;10.63;;
42724;SDS011;28369;44.046;23.014;2024-01-16T17:04:33;15.23;;;10.00;;
42724;SDS011;28369;44.046;23.014;2024-01-16T17:07:01;22.00;;;12.90;;
42724;SDS011;28369;44.046;23.014;2024-01-16T17:09:27;28.67;;;17.27;;
42724;SDS011;28369;44.046;23.014;2024-01-16T17:11:53;81.47;;;44.87;;
42724;SDS011;28369;44.046;23.014;2024-01-16T17:14:22;34.70;;;20.50;;
42724;SDS011;28369;44.046;23.014;2024-01-16T17:16:48;19.13;;;12.07;;
42724;SDS011;28369;44.046;23.014;2024-01-16T17:19:15;16.27;;;9.00;;
42724;SDS011;28369;44.046;23.014;2024-01-16T17:21:41;13.97;;;8.13;;
42724;SDS011;28369;44.046;23.014;2024-01-16T17:24:07;12.50;;;7.60;;
42724;SDS011;28369;44.046;23.014;2024-01-16T17:26:34;11.93;;;8.27;;
42724;SDS011;28369;44.046;23.014;2024-01-16T17:29:00;15.37;;;9.00;;
42724;SDS011;28369;44.046;23.014;2024-01-16T17:31:26;34.10;;;18.47;;
42724;SDS011;28369;44.046;23.014;2024-01-16T17:33:52;41.97;;;19.97;;
42724;SDS011;28369;44.046;23.014;2024-01-16T17:36:19;53.13;;;25.47;;
42724;SDS011;28369;44.046;23.014;2024-01-16T17:38:45;84.70;;;41.07;;
42724;SDS011;28369;44.046;23.014;2024-01-16T17:41:11;177.07;;;80.20;;
42724;SDS011;28369;44.046;23.014;2024-01-16T17:43:37;221.57;;;101.10;;
42724;SDS011;28369;44.046;23.014;2024-01-16T17:46:07;230.63;;;106.73;;
42724;SDS011;28369;44.046;23.014;2024-01-16T17:48:34;212.00;;;94.27;;
42724;SDS011;28369;44.046;23.014;2024-01-16T17:51:00;119.20;;;58.73;;
42724;SDS011;28369;44.046;23.014;2024-01-16T17:53:28;99.13;;;51.90;;
42724;SDS011;28369;44.046;23.014;2024-01-16T17:55:54;51.17;;;26.70;;
42724;SDS011;28369;44.046;23.014;2024-01-16T17:58:20;55.37;;;27.73;;
42724;SDS011;28369;44.046;23.014;2024-01-16T18:00:47;81.67;;;42.50;;
42724;SDS011;28369;44.046;23.014;2024-01-16T18:03:14;92.43;;;51.73;;
42724;SDS011;28369;44.046;23.014;2024-01-16T18:05:40;49.90;;;28.87;;
42724;SDS011;28369;44.046;23.014;2024-01-16T18:08:06;35.43;;;20.73;;
42724;SDS011;28369;44.046;23.014;2024-01-16T18:10:33;40.37;;;21.87;;
42724;SDS011;28369;44.046;23.014;2024-01-16T18:13:00;36.40;;;19.80;;
42724;SDS011;28369;44.046;23.014;2024-01-16T18:15:25;42.07;;;22.03;;
42724;SDS011;28369;44.046;23.014;2024-01-16T18:17:52;43.43;;;24.27;;
42724;SDS011;28369;44.046;23.014;2024-01-16T18:20:19;51.23;;;27.97;;
42724;SDS011;28369;44.046;23.014;2024-01-16T18:22:47;47.40;;;25.93;;
42724;SDS011;28369;44.046;23.014;2024-01-16T18:25:15;29.27;;;15.10;;
42724;SDS011;28369;44.046;23.014;2024-01-16T18:27:41;20.03;;;11.13;;
42724;SDS011;28369;44.046;23.014;2024-01-16T18:30:12;23.20;;;13.93;;
42724;SDS011;28369;44.046;23.014;2024-01-16T18:32:41;28.20;;;18.03;;
42724;SDS011;28369;44.046;23.014;2024-01-16T18:35:08;32.97;;;19.00;;
42724;SDS011;28369;44.046;23.014;2024-01-16T18:37:41;35.93;;;20.27;;
42724;SDS011;28369;44.046;23.014;2024-01-16T18:40:09;37.75;;;21.05;;
42724;SDS011;28369;44.046;23.014;2024-01-16T18:42:37;38.50;;;21.97;;
42724;SDS011;28369;44.046;23.014;2024-01-16T18:45:05;41.90;;;23.20;;
42724;SDS011;28369;44.046;23.014;2024-01-16T18:47:33;45.93;;;24.67;;
42724;SDS011;28369;44.046;23.014;2024-01-16T18:50:21;43.73;;;24.87;;
42724;SDS011;28369;44.046;23.014;2024-01-16T18:52:47;56.03;;;28.97;;
42724;SDS011;28369;44.046;23.014;2024-01-16T18:55:13;52.93;;;30.50;;
42724;SDS011;28369;44.046;23.014;2024-01-16T18:57:41;49.10;;;24.20;;
42724;SDS011;28369;44.046;23.014;2024-01-16T19:00:08;75.97;;;38.27;;
42724;SDS011;28369;44.046;23.014;2024-01-16T19:02:39;67.13;;;35.83;;
42724;SDS011;28369;44.046;23.014;2024-01-16T19:05:08;54.23;;;30.87;;
42724;SDS011;28369;44.046;23.014;2024-01-16T19:07:43;44.47;;;26.63;;
42724;SDS011;28369;44.046;23.014;2024-01-16T19:10:11;42.80;;;23.77;;
42724;SDS011;28369;44.046;23.014;2024-01-16T19:12:41;60.93;;;28.13;;
42724;SDS011;28369;44.046;23.014;2024-01-16T19:15:15;45.43;;;21.50;;
42724;SDS011;28369;44.046;23.014;2024-01-16T19:17:43;41.60;;;21.10;;
42724;SDS011;28369;44.046;23.014;2024-01-16T19:20:16;60.70;;;28.67;;
42724;SDS011;28369;44.046;23.014;2024-01-16T19:22:49;42.58;;;23.05;;
42724;SDS011;28369;44.046;23.014;2024-01-16T19:25:22;29.40;;;17.00;;
42724;SDS011;28369;44.046;23.014;2024-01-16T19:27:50;26.20;;;15.50;;
42724;SDS011;28369;44.046;23.014;2024-01-16T19:30:17;25.23;;;14.80;;
42724;SDS011;28369;44.046;23.014;2024-01-16T19:32:46;23.70;;;14.93;;
42724;SDS011;28369;44.046;23.014;2024-01-16T19:35:13;29.43;;;15.80;;
42724;SDS011;28369;44.046;23.014;2024-01-16T19:37:42;25.93;;;15.30;;
42724;SDS011;28369;44.046;23.014;2024-01-16T19:40:14;22.03;;;14.10;;
42724;SDS011;28369;44.046;23.014;2024-01-16T19:42:43;29.33;;;18.00;;
42724;SDS011;28369;44.046;23.014;2024-01-16T19:45:10;25.93;;;14.80;;
42724;SDS011;28369;44.046;23.014;2024-01-16T19:47:59;26.27;;;16.13;;
42724;SDS011;28369;44.046;23.014;2024-01-16T19:50:28;23.80;;;14.30;;
42724;SDS011;28369;44.046;23.014;2024-01-16T19:52:56;31.10;;;20.40;;
42724;SDS011;28369;44.046;23.014;2024-01-16T19:55:23;25.13;;;14.17;;
42724;SDS011;28369;44.046;23.014;2024-01-16T19:57:56;24.93;;;15.67;;
42724;SDS011;28369;44.046;23.014;2024-01-16T20:00:25;35.63;;;19.07;;
42724;SDS011;28369;44.046;23.014;2024-01-16T20:02:51;31.50;;;19.50;;
42724;SDS011;28369;44.046;23.014;2024-01-16T20:05:18;33.47;;;18.20;;
42724;SDS011;28369;44.046;23.014;2024-01-16T20:07:48;29.83;;;18.97;;
42724;SDS011;28369;44.046;23.014;2024-01-16T20:10:14;57.40;;;29.43;;
42724;SDS011;28369;44.046;23.014;2024-01-16T20:12:46;35.73;;;19.57;;
42724;SDS011;28369;44.046;23.014;2024-01-16T20:15:18;29.07;;;16.30;;
42724;SDS011;28369;44.046;23.014;2024-01-16T20:17:45;28.97;;;17.57;;
42724;SDS011;28369;44.046;23.014;2024-01-16T20:20:16;28.23;;;16.33;;
42724;SDS011;28369;44.046;23.014;2024-01-16T20:22:44;30.40;;;17.93;;
42724;SDS011;28369;44.046;23.014;2024-01-16T20:25:10;35.23;;;18.80;;
42724;SDS011;28369;44.046;23.014;2024-01-16T20:27:50;42.37;;;23.50;;
42724;SDS011;28369;44.046;23.014;2024-01-16T20:30:18;63.57;;;33.37;;
42724;SDS011;28369;44.046;23.014;2024-01-16T20:32:44;50.20;;;28.80;;
42724;SDS011;28369;44.046;23.014;2024-01-16T20:35:12;38.03;;;21.00;;
42724;SDS011;28369;44.046;23.014;2024-01-16T20:37:39;39.00;;;22.57;;
42724;SDS011;28369;44.046;23.014;2024-01-16T20:40:08;42.23;;;23.77;;
42724;SDS011;28369;44.046;23.014;2024-01-16T20:42:36;48.33;;;28.20;;
42724;SDS011;28369;44.046;23.014;2024-01-16T20:45:04;35.90;;;22.17;;
42724;SDS011;28369;44.046;23.014;2024-01-16T20:47:36;29.07;;;17.80;;
42724;SDS011;28369;44.046;23.014;2024-01-16T20:50:06;24.57;;;16.37;;
42724;SDS011;28369;44.046;23.014;2024-01-16T20:52:37;45.53;;;27.40;;
42724;SDS011;28369;44.046;23.014;2024-01-16T20:55:46;45.63;;;26.87;;
42724;SDS011;28369;44.046;23.014;2024-01-16T20:58:15;51.27;;;27.80;;
42724;SDS011;28369;44.046;23.014;2024-01-16T21:00:41;44.73;;;26.77;;
42724;SDS011;28369;44.046;23.014;2024-01-16T21:03:10;43.17;;;27.30;;
42724;SDS011;28369;44.046;23.014;2024-01-16T21:05:45;71.10;;;35.13;;
42724;SDS011;28369;44.046;23.014;2024-01-16T21:08:19;53.53;;;31.10;;
42724;SDS011;28369;44.046;23.014;2024-01-16T21:10:46;48.20;;;28.40;;
42724;SDS011;28369;44.046;23.014;2024-01-16T21:13:18;56.50;;;33.93;;
42724;SDS011;28369;44.046;23.014;2024-01-16T21:20:03;56.65;;;33.17;;
42724;SDS011;28369;44.046;23.014;2024-01-16T21:22:35;57.43;;;33.57;;
42724;SDS011;28369;44.046;23.014;2024-01-16T21:25:07;39.93;;;26.00;;
42724;SDS011;28369;44.046;23.014;2024-01-16T21:27:39;41.47;;;24.17;;
42724;SDS011;28369;44.046;23.014;2024-01-16T21:30:08;41.00;;;22.27;;
42724;SDS011;28369;44.046;23.014;2024-01-16T21:32:38;39.47;;;23.20;;
42724;SDS011;28369;44.046;23.014;2024-01-16T21:35:07;39.80;;;24.87;;
42724;SDS011;28369;44.046;23.014;2024-01-16T21:37:35;39.73;;;24.63;;
42724;SDS011;28369;44.046;23.014;2024-01-16T21:43:27;43.10;;;26.20;;
42724;SDS011;28369;44.046;23.014;2024-01-16T21:45:53;41.23;;;25.07;;
42724;SDS011;28369;44.046;23.014;2024-01-16T21:48:23;40.30;;;25.50;;
42724;SDS011;28369;44.046;23.014;2024-01-16T21:54:25;46.67;;;26.33;;
42724;SDS011;28369;44.046;23.014;2024-01-16T21:56:54;42.53;;;24.97;;
42724;SDS011;28369;44.046;23.014;2024-01-16T21:59:22;55.40;;;25.70;;
42724;SDS011;28369;44.046;23.014;2024-01-16T22:01:49;51.70;;;29.30;;
42724;SDS011;28369;44.046;23.014;2024-01-16T22:04:17;48.30;;;29.50;;
42724;SDS011;28369;44.046;23.014;2024-01-16T22:06:48;46.42;;;28.60;;
42724;SDS011;28369;44.046;23.014;2024-01-16T22:09:17;54.70;;;30.13;;
42724;SDS011;28369;44.046;23.014;2024-01-16T22:11:58;97.97;;;59.87;;
42724;SDS011;28369;44.046;23.014;2024-01-16T22:14:24;55.63;;;34.93;;
42724;SDS011;28369;44.046;23.014;2024-01-16T22:16:50;68.17;;;44.03;;
42724;SDS011;28369;44.046;23.014;2024-01-16T22:19:16;68.93;;;39.67;;
42724;SDS011;28369;44.046;23.014;2024-01-16T22:21:50;63.47;;;37.37;;
42724;SDS011;28369;44.046;23.014;2024-01-16T22:27:39;62.50;;;35.55;;
42724;SDS011;28369;44.046;23.014;2024-01-16T22:30:05;64.60;;;37.53;;
42724;SDS011;28369;44.046;23.014;2024-01-16T22:32:35;66.73;;;37.83;;
42724;SDS011;28369;44.046;23.014;2024-01-16T22:35:01;71.47;;;40.50;;
42724;SDS011;28369;44.046;23.014;2024-01-16T22:37:29;78.20;;;43.20;;
42724;SDS011;28369;44.046;23.014;2024-01-16T22:39:56;76.93;;;44.60;;
42724;SDS011;28369;44.046;23.014;2024-01-16T22:42:22;83.03;;;46.67;;
42724;SDS011;28369;44.046;23.014;2024-01-16T22:44:49;76.73;;;42.50;;
42724;SDS011;28369;44.046;23.014;2024-01-16T22:47:15;75.70;;;44.17;;
42724;SDS011;28369;44.046;23.014;2024-01-16T22:49:43;73.23;;;43.13;;
42724;SDS011;28369;44.046;23.014;2024-01-16T22:52:12;90.70;;;50.23;;
42724;SDS011;28369;44.046;23.014;2024-01-16T22:54:44;88.03;;;49.67;;
42724;SDS011;28369;44.046;23.014;2024-01-16T22:57:13;83.00;;;45.47;;
42724;SDS011;28369;44.046;23.014;2024-01-16T22:59:42;87.70;;;50.20;;
42724;SDS011;28369;44.046;23.014;2024-01-16T23:02:08;84.23;;;48.77;;
42724;SDS011;28369;44.046;23.014;2024-01-16T23:07:59;69.88;;;37.53;;
42724;SDS011;28369;44.046;23.014;2024-01-16T23:10:30;73.47;;;41.67;;
42724;SDS011;28369;44.046;23.014;2024-01-16T23:12:56;79.67;;;43.63;;
42724;SDS011;28369;44.046;23.014;2024-01-16T23:15:26;63.07;;;35.23;;
42724;SDS011;28369;44.046;23.014;2024-01-16T23:18:11;54.03;;;31.67;;
42724;SDS011;28369;44.046;23.014;2024-01-16T23:20:40;111.73;;;46.90;;
42724;SDS011;28369;44.046;23.014;2024-01-16T23:23:09;119.73;;;54.57;;
42724;SDS011;28369;44.046;23.014;2024-01-16T23:25:55;99.50;;;46.03;;
42724;SDS011;28369;44.046;23.014;2024-01-16T23:28:23;84.23;;;40.03;;
42724;SDS011;28369;44.046;23.014;2024-01-16T23:30:51;58.60;;;29.40;;
42724;SDS011;28369;44.046;23.014;2024-01-16T23:33:19;50.73;;;26.17;;
42724;SDS011;28369;44.046;23.014;2024-01-16T23:35:48;53.67;;;28.43;;
42724;SDS011;28369;44.046;23.014;2024-01-16T23:38:16;55.67;;;30.20;;
42724;SDS011;28369;44.046;23.014;2024-01-16T23:40:47;49.27;;;27.93;;